sensor_id;sensor_type;location;lat;lon;timestamp;P1;durP1;ratioP1;P2;durP2;ratioP2
40649;SDS011;26342;42.826;23.992;2023-10-08T00:01:53;0.70;;;0.20;;
40649;SDS011;26342;42.826;23.992;2023-10-08T00:04:20;1.85;;;0.77;;
40649;SDS011;26342;42.826;23.992;2023-10-08T00:06:46;4.75;;;0.47;;
40649;SDS011;26342;42.826;23.992;2023-10-08T00:09:12;2.47;;;0.82;;
40649;SDS011;26342;42.826;23.992;2023-10-08T00:11:39;0.50;;;0.50;;
40649;SDS011;26342;42.826;23.992;2023-10-08T00:14:06;1.67;;;0.75;;
40649;SDS011;26342;42.826;23.992;2023-10-08T00:16:34;1.35;;;0.75;;
40649;SDS011;26342;42.826;23.992;2023-10-08T00:19:00;3.30;;;0.30;;
40649;SDS011;26342;42.826;23.992;2023-10-08T00:21:33;1.23;;;0.80;;
40649;SDS011;26342;42.826;23.992;2023-10-08T00:24:01;5.63;;;2.17;;
40649;SDS011;26342;42.826;23.992;2023-10-08T00:26:30;2.78;;;1.02;;
40649;SDS011;26342;42.826;23.992;2023-10-08T00:28:56;1.08;;;0.77;;
40649;SDS011;26342;42.826;23.992;2023-10-08T00:31:24;1.13;;;0.80;;
40649;SDS011;26342;42.826;23.992;2023-10-08T00:34:10;1.67;;;0.85;;
40649;SDS011;26342;42.826;23.992;2023-10-08T00:36:38;2.13;;;0.65;;
40649;SDS011;26342;42.826;23.992;2023-10-08T00:39:04;0.63;;;0.50;;
40649;SDS011;26342;42.826;23.992;2023-10-08T00:41:35;0.90;;;0.77;;
40649;SDS011;26342;42.826;23.992;2023-10-08T00:44:06;0.75;;;0.40;;
40649;SDS011;26342;42.826;23.992;2023-10-08T00:46:33;0.80;;;0.77;;
40649;SDS011;26342;42.826;23.992;2023-10-08T00:49:12;1.67;;;0.93;;
40649;SDS011;26342;42.826;23.992;2023-10-08T00:51:47;1.08;;;0.90;;
40649;SDS011;26342;42.826;23.992;2023-10-08T00:54:26;0.63;;;0.47;;
40649;SDS011;26342;42.826;23.992;2023-10-08T00:56:57;0.30;;;0.30;;
40649;SDS011;26342;42.826;23.992;2023-10-08T00:59:29;2.10;;;0.57;;
40649;SDS011;26342;42.826;23.992;2023-10-08T01:01:58;0.85;;;0.40;;
40649;SDS011;26342;42.826;23.992;2023-10-08T01:04:30;2.38;;;1.15;;
40649;SDS011;26342;42.826;23.992;2023-10-08T01:06:59;0.73;;;0.68;;
40649;SDS011;26342;42.826;23.992;2023-10-08T01:09:29;0.28;;;0.28;;
40649;SDS011;26342;42.826;23.992;2023-10-08T01:12:19;2.13;;;0.85;;
40649;SDS011;26342;42.826;23.992;2023-10-08T01:14:46;1.65;;;0.52;;
40649;SDS011;26342;42.826;23.992;2023-10-08T01:17:18;1.58;;;0.95;;
40649;SDS011;26342;42.826;23.992;2023-10-08T01:19:48;1.33;;;0.75;;
40649;SDS011;26342;42.826;23.992;2023-10-08T01:22:25;0.57;;;0.52;;
40649;SDS011;26342;42.826;23.992;2023-10-08T01:24:54;1.80;;;0.60;;
40649;SDS011;26342;42.826;23.992;2023-10-08T01:27:20;0.55;;;0.30;;
40649;SDS011;26342;42.826;23.992;2023-10-08T01:29:48;0.10;;;0.10;;
40649;SDS011;26342;42.826;23.992;2023-10-08T01:32:17;0.45;;;0.45;;
40649;SDS011;26342;42.826;23.992;2023-10-08T01:34:44;1.02;;;0.60;;
40649;SDS011;26342;42.826;23.992;2023-10-08T01:37:19;1.20;;;0.73;;
40649;SDS011;26342;42.826;23.992;2023-10-08T01:39:46;0.63;;;0.60;;
40649;SDS011;26342;42.826;23.992;2023-10-08T01:42:15;0.73;;;0.40;;
40649;SDS011;26342;42.826;23.992;2023-10-08T01:44:53;0.95;;;0.80;;
40649;SDS011;26342;42.826;23.992;2023-10-08T01:47:20;0.35;;;0.30;;
40649;SDS011;26342;42.826;23.992;2023-10-08T01:49:50;1.23;;;1.13;;
40649;SDS011;26342;42.826;23.992;2023-10-08T01:52:18;1.20;;;0.55;;
40649;SDS011;26342;42.826;23.992;2023-10-08T01:54:50;0.60;;;0.30;;
40649;SDS011;26342;42.826;23.992;2023-10-08T01:57:19;0.65;;;0.43;;
40649;SDS011;26342;42.826;23.992;2023-10-08T01:59:44;2.88;;;0.77;;
40649;SDS011;26342;42.826;23.992;2023-10-08T02:02:10;1.30;;;0.73;;
40649;SDS011;26342;42.826;23.992;2023-10-08T02:04:37;2.25;;;0.93;;
40649;SDS011;26342;42.826;23.992;2023-10-08T02:07:03;0.30;;;0.30;;
40649;SDS011;26342;42.826;23.992;2023-10-08T02:09:29;0.50;;;0.50;;
40649;SDS011;26342;42.826;23.992;2023-10-08T02:11:58;1.45;;;1.10;;
40649;SDS011;26342;42.826;23.992;2023-10-08T02:14:23;0.70;;;0.55;;
40649;SDS011;26342;42.826;23.992;2023-10-08T02:16:49;0.40;;;0.40;;
40649;SDS011;26342;42.826;23.992;2023-10-08T02:19:21;0.63;;;0.50;;
40649;SDS011;26342;42.826;23.992;2023-10-08T02:21:52;1.02;;;0.40;;
40649;SDS011;26342;42.826;23.992;2023-10-08T02:24:20;0.80;;;0.52;;
40649;SDS011;26342;42.826;23.992;2023-10-08T02:26:49;0.90;;;0.60;;
40649;SDS011;26342;42.826;23.992;2023-10-08T02:29:19;1.67;;;1.23;;
40649;SDS011;26342;42.826;23.992;2023-10-08T02:31:50;3.38;;;0.98;;
40649;SDS011;26342;42.826;23.992;2023-10-08T02:34:15;2.35;;;0.85;;
40649;SDS011;26342;42.826;23.992;2023-10-08T02:36:41;1.63;;;1.02;;
40649;SDS011;26342;42.826;23.992;2023-10-08T02:39:07;7.22;;;2.33;;
40649;SDS011;26342;42.826;23.992;2023-10-08T02:41:46;2.17;;;0.75;;
40649;SDS011;26342;42.826;23.992;2023-10-08T02:44:14;0.25;;;0.20;;
40649;SDS011;26342;42.826;23.992;2023-10-08T02:46:41;0.68;;;0.22;;
40649;SDS011;26342;42.826;23.992;2023-10-08T02:49:10;1.05;;;0.73;;
40649;SDS011;26342;42.826;23.992;2023-10-08T02:51:40;3.45;;;1.20;;
40649;SDS011;26342;42.826;23.992;2023-10-08T02:54:09;0.93;;;0.63;;
40649;SDS011;26342;42.826;23.992;2023-10-08T02:56:42;0.98;;;0.47;;
40649;SDS011;26342;42.826;23.992;2023-10-08T02:59:10;0.55;;;0.52;;
40649;SDS011;26342;42.826;23.992;2023-10-08T03:01:37;2.05;;;0.57;;
40649;SDS011;26342;42.826;23.992;2023-10-08T03:04:05;3.50;;;0.50;;
40649;SDS011;26342;42.826;23.992;2023-10-08T03:06:40;5.93;;;1.27;;
40649;SDS011;26342;42.826;23.992;2023-10-08T03:09:06;0.82;;;0.82;;
40649;SDS011;26342;42.826;23.992;2023-10-08T03:11:34;0.90;;;0.63;;
40649;SDS011;26342;42.826;23.992;2023-10-08T03:14:02;2.20;;;0.60;;
40649;SDS011;26342;42.826;23.992;2023-10-08T03:16:28;1.00;;;0.70;;
40649;SDS011;26342;42.826;23.992;2023-10-08T03:18:59;0.68;;;0.40;;
40649;SDS011;26342;42.826;23.992;2023-10-08T03:21:26;1.33;;;0.80;;
40649;SDS011;26342;42.826;23.992;2023-10-08T03:24:03;1.85;;;0.95;;
40649;SDS011;26342;42.826;23.992;2023-10-08T03:26:49;2.17;;;1.17;;
40649;SDS011;26342;42.826;23.992;2023-10-08T03:29:20;1.40;;;0.80;;
40649;SDS011;26342;42.826;23.992;2023-10-08T03:31:46;1.38;;;0.95;;
40649;SDS011;26342;42.826;23.992;2023-10-08T03:34:12;0.65;;;0.60;;
40649;SDS011;26342;42.826;23.992;2023-10-08T03:36:43;0.98;;;0.63;;
40649;SDS011;26342;42.826;23.992;2023-10-08T03:39:10;0.73;;;0.63;;
40649;SDS011;26342;42.826;23.992;2023-10-08T03:41:45;1.30;;;1.02;;
40649;SDS011;26342;42.826;23.992;2023-10-08T03:44:16;4.07;;;1.13;;
40649;SDS011;26342;42.826;23.992;2023-10-08T03:46:42;2.83;;;0.90;;
40649;SDS011;26342;42.826;23.992;2023-10-08T03:49:11;1.13;;;0.57;;
40649;SDS011;26342;42.826;23.992;2023-10-08T03:51:53;0.40;;;0.30;;
40649;SDS011;26342;42.826;23.992;2023-10-08T03:54:19;0.77;;;0.52;;
40649;SDS011;26342;42.826;23.992;2023-10-08T03:56:52;2.45;;;1.15;;
40649;SDS011;26342;42.826;23.992;2023-10-08T03:59:18;1.25;;;0.75;;
40649;SDS011;26342;42.826;23.992;2023-10-08T04:01:59;0.43;;;0.30;;
40649;SDS011;26342;42.826;23.992;2023-10-08T04:04:46;3.15;;;0.98;;
40649;SDS011;26342;42.826;23.992;2023-10-08T04:07:21;0.57;;;0.30;;
40649;SDS011;26342;42.826;23.992;2023-10-08T04:10:04;0.60;;;0.55;;
40649;SDS011;26342;42.826;23.992;2023-10-08T04:12:33;2.60;;;0.65;;
40649;SDS011;26342;42.826;23.992;2023-10-08T04:15:03;1.90;;;0.88;;
40649;SDS011;26342;42.826;23.992;2023-10-08T04:17:32;2.08;;;0.98;;
40649;SDS011;26342;42.826;23.992;2023-10-08T04:20:09;1.67;;;1.13;;
40649;SDS011;26342;42.826;23.992;2023-10-08T04:22:53;1.75;;;1.05;;
40649;SDS011;26342;42.826;23.992;2023-10-08T04:25:19;2.10;;;0.90;;
40649;SDS011;26342;42.826;23.992;2023-10-08T04:27:45;1.80;;;0.90;;
40649;SDS011;26342;42.826;23.992;2023-10-08T04:30:14;1.33;;;0.88;;
40649;SDS011;26342;42.826;23.992;2023-10-08T04:32:40;1.15;;;0.80;;
40649;SDS011;26342;42.826;23.992;2023-10-08T04:35:06;1.30;;;0.68;;
40649;SDS011;26342;42.826;23.992;2023-10-08T04:37:34;0.77;;;0.47;;
40649;SDS011;26342;42.826;23.992;2023-10-08T04:40:00;1.33;;;0.60;;
40649;SDS011;26342;42.826;23.992;2023-10-08T04:42:26;0.93;;;0.60;;
40649;SDS011;26342;42.826;23.992;2023-10-08T04:44:52;1.95;;;0.70;;
40649;SDS011;26342;42.826;23.992;2023-10-08T04:47:17;2.45;;;0.90;;
40649;SDS011;26342;42.826;23.992;2023-10-08T04:49:58;1.52;;;0.98;;
40649;SDS011;26342;42.826;23.992;2023-10-08T04:52:24;1.58;;;0.90;;
40649;SDS011;26342;42.826;23.992;2023-10-08T04:54:52;2.55;;;1.30;;
40649;SDS011;26342;42.826;23.992;2023-10-08T04:57:19;4.45;;;1.35;;
40649;SDS011;26342;42.826;23.992;2023-10-08T04:59:51;2.35;;;1.17;;
40649;SDS011;26342;42.826;23.992;2023-10-08T05:02:17;4.38;;;2.47;;
40649;SDS011;26342;42.826;23.992;2023-10-08T05:04:59;8.48;;;3.65;;
40649;SDS011;26342;42.826;23.992;2023-10-08T05:07:36;3.40;;;1.40;;
40649;SDS011;26342;42.826;23.992;2023-10-08T05:10:25;0.65;;;0.63;;
40649;SDS011;26342;42.826;23.992;2023-10-08T05:12:51;7.65;;;2.40;;
40649;SDS011;26342;42.826;23.992;2023-10-08T05:15:41;3.35;;;1.52;;
40649;SDS011;26342;42.826;23.992;2023-10-08T05:18:15;3.53;;;2.45;;
40649;SDS011;26342;42.826;23.992;2023-10-08T05:20:43;4.40;;;1.85;;
40649;SDS011;26342;42.826;23.992;2023-10-08T05:23:15;3.58;;;2.53;;
40649;SDS011;26342;42.826;23.992;2023-10-08T05:25:55;3.80;;;1.83;;
40649;SDS011;26342;42.826;23.992;2023-10-08T05:28:31;3.30;;;1.65;;
40649;SDS011;26342;42.826;23.992;2023-10-08T05:31:10;4.38;;;1.55;;
40649;SDS011;26342;42.826;23.992;2023-10-08T05:33:36;4.95;;;2.70;;
40649;SDS011;26342;42.826;23.992;2023-10-08T05:36:25;9.00;;;3.20;;
40649;SDS011;26342;42.826;23.992;2023-10-08T05:39:00;3.17;;;2.33;;
40649;SDS011;26342;42.826;23.992;2023-10-08T05:41:29;5.13;;;3.00;;
40649;SDS011;26342;42.826;23.992;2023-10-08T05:44:18;4.65;;;2.67;;
40649;SDS011;26342;42.826;23.992;2023-10-08T05:46:43;3.83;;;2.20;;
40649;SDS011;26342;42.826;23.992;2023-10-08T05:49:18;2.53;;;2.28;;
40649;SDS011;26342;42.826;23.992;2023-10-08T05:51:56;3.20;;;2.33;;
40649;SDS011;26342;42.826;23.992;2023-10-08T05:54:25;2.95;;;1.70;;
40649;SDS011;26342;42.826;23.992;2023-10-08T05:57:06;6.18;;;2.28;;
40649;SDS011;26342;42.826;23.992;2023-10-08T06:02:20;5.07;;;3.08;;
40649;SDS011;26342;42.826;23.992;2023-10-08T06:04:59;5.30;;;2.70;;
40649;SDS011;26342;42.826;23.992;2023-10-08T06:07:37;3.13;;;2.30;;
40649;SDS011;26342;42.826;23.992;2023-10-08T06:10:19;5.47;;;2.28;;
40649;SDS011;26342;42.826;23.992;2023-10-08T06:12:56;10.63;;;4.82;;
40649;SDS011;26342;42.826;23.992;2023-10-08T06:15:47;8.30;;;3.03;;
40649;SDS011;26342;42.826;23.992;2023-10-08T06:18:31;3.70;;;1.95;;
40649;SDS011;26342;42.826;23.992;2023-10-08T06:21:03;3.13;;;1.85;;
40649;SDS011;26342;42.826;23.992;2023-10-08T06:23:40;4.18;;;1.70;;
40649;SDS011;26342;42.826;23.992;2023-10-08T06:26:07;1.85;;;1.40;;
40649;SDS011;26342;42.826;23.992;2023-10-08T06:28:45;4.57;;;1.70;;
40649;SDS011;26342;42.826;23.992;2023-10-08T06:31:14;3.80;;;2.35;;
40649;SDS011;26342;42.826;23.992;2023-10-08T06:33:42;1.95;;;1.63;;
40649;SDS011;26342;42.826;23.992;2023-10-08T06:36:09;2.75;;;1.60;;
40649;SDS011;26342;42.826;23.992;2023-10-08T06:38:41;4.20;;;1.48;;
40649;SDS011;26342;42.826;23.992;2023-10-08T06:41:08;1.23;;;1.05;;
40649;SDS011;26342;42.826;23.992;2023-10-08T06:43:38;3.20;;;1.77;;
40649;SDS011;26342;42.826;23.992;2023-10-08T06:46:04;4.55;;;2.40;;
40649;SDS011;26342;42.826;23.992;2023-10-08T06:51:02;3.83;;;2.10;;
40649;SDS011;26342;42.826;23.992;2023-10-08T06:53:41;2.78;;;1.90;;
40649;SDS011;26342;42.826;23.992;2023-10-08T06:56:10;1.83;;;1.10;;
40649;SDS011;26342;42.826;23.992;2023-10-08T06:58:37;1.48;;;1.35;;
40649;SDS011;26342;42.826;23.992;2023-10-08T07:01:12;1.08;;;0.60;;
40649;SDS011;26342;42.826;23.992;2023-10-08T07:03:38;0.80;;;0.32;;
40649;SDS011;26342;42.826;23.992;2023-10-08T07:06:04;0.40;;;0.30;;
40649;SDS011;26342;42.826;23.992;2023-10-08T07:08:42;0.40;;;0.40;;
40649;SDS011;26342;42.826;23.992;2023-10-08T07:11:12;0.40;;;0.40;;
40649;SDS011;26342;42.826;23.992;2023-10-08T07:13:38;0.57;;;0.57;;
40649;SDS011;26342;42.826;23.992;2023-10-08T07:16:07;0.47;;;0.47;;
40649;SDS011;26342;42.826;23.992;2023-10-08T07:18:36;1.15;;;0.90;;
40649;SDS011;26342;42.826;23.992;2023-10-08T07:21:02;0.75;;;0.70;;
40649;SDS011;26342;42.826;23.992;2023-10-08T07:23:37;2.10;;;1.38;;
40649;SDS011;26342;42.826;23.992;2023-10-08T07:26:18;2.20;;;1.38;;
40649;SDS011;26342;42.826;23.992;2023-10-08T07:28:49;1.63;;;1.25;;
40649;SDS011;26342;42.826;23.992;2023-10-08T07:31:17;0.95;;;0.47;;
40649;SDS011;26342;42.826;23.992;2023-10-08T07:33:48;0.90;;;0.77;;
40649;SDS011;26342;42.826;23.992;2023-10-08T07:36:21;1.35;;;1.08;;
40649;SDS011;26342;42.826;23.992;2023-10-08T07:38:51;0.73;;;0.73;;
40649;SDS011;26342;42.826;23.992;2023-10-08T07:41:18;10.57;;;1.50;;
40649;SDS011;26342;42.826;23.992;2023-10-08T07:43:49;2.00;;;1.15;;
40649;SDS011;26342;42.826;23.992;2023-10-08T07:46:23;0.43;;;0.40;;
40649;SDS011;26342;42.826;23.992;2023-10-08T07:48:51;2.80;;;1.38;;
40649;SDS011;26342;42.826;23.992;2023-10-08T07:51:17;1.02;;;0.63;;
40649;SDS011;26342;42.826;23.992;2023-10-08T07:53:56;0.52;;;0.50;;
40649;SDS011;26342;42.826;23.992;2023-10-08T07:56:21;0.17;;;0.13;;
40649;SDS011;26342;42.826;23.992;2023-10-08T07:58:48;0.35;;;0.35;;
40649;SDS011;26342;42.826;23.992;2023-10-08T08:01:15;0.13;;;0.13;;
40649;SDS011;26342;42.826;23.992;2023-10-08T08:03:40;0.75;;;0.63;;
40649;SDS011;26342;42.826;23.992;2023-10-08T08:06:07;0.50;;;0.50;;
40649;SDS011;26342;42.826;23.992;2023-10-08T08:08:34;2.40;;;0.82;;
40649;SDS011;26342;42.826;23.992;2023-10-08T08:11:01;0.38;;;0.38;;
40649;SDS011;26342;42.826;23.992;2023-10-08T08:13:34;7.43;;;0.95;;
40649;SDS011;26342;42.826;23.992;2023-10-08T08:16:00;2.03;;;1.45;;
40649;SDS011;26342;42.826;23.992;2023-10-08T08:18:41;1.17;;;1.10;;
40649;SDS011;26342;42.826;23.992;2023-10-08T08:21:15;1.45;;;0.70;;
40649;SDS011;26342;42.826;23.992;2023-10-08T08:23:44;0.20;;;0.20;;
40649;SDS011;26342;42.826;23.992;2023-10-08T08:26:17;0.28;;;0.28;;
40649;SDS011;26342;42.826;23.992;2023-10-08T08:29:04;0.40;;;0.40;;
40649;SDS011;26342;42.826;23.992;2023-10-08T08:31:34;0.93;;;0.55;;
40649;SDS011;26342;42.826;23.992;2023-10-08T08:34:03;0.70;;;0.70;;
40649;SDS011;26342;42.826;23.992;2023-10-08T08:36:33;1.92;;;0.60;;
40649;SDS011;26342;42.826;23.992;2023-10-08T08:39:02;2.05;;;1.00;;
40649;SDS011;26342;42.826;23.992;2023-10-08T08:41:29;2.75;;;1.40;;
40649;SDS011;26342;42.826;23.992;2023-10-08T08:43:55;0.22;;;0.22;;
40649;SDS011;26342;42.826;23.992;2023-10-08T08:46:37;1.35;;;0.85;;
40649;SDS011;26342;42.826;23.992;2023-10-08T08:49:04;0.17;;;0.17;;
40649;SDS011;26342;42.826;23.992;2023-10-08T08:51:32;0.68;;;0.63;;
40649;SDS011;26342;42.826;23.992;2023-10-08T08:54:00;0.68;;;0.57;;
40649;SDS011;26342;42.826;23.992;2023-10-08T08:56:31;0.30;;;0.30;;
40649;SDS011;26342;42.826;23.992;2023-10-08T08:58:59;0.57;;;0.57;;
40649;SDS011;26342;42.826;23.992;2023-10-08T09:01:25;0.43;;;0.43;;
40649;SDS011;26342;42.826;23.992;2023-10-08T09:03:50;0.75;;;0.75;;
40649;SDS011;26342;42.826;23.992;2023-10-08T09:06:16;0.45;;;0.45;;
40649;SDS011;26342;42.826;23.992;2023-10-08T09:08:41;0.25;;;0.25;;
40649;SDS011;26342;42.826;23.992;2023-10-08T09:11:13;0.30;;;0.30;;
40649;SDS011;26342;42.826;23.992;2023-10-08T09:13:40;0.30;;;0.30;;
40649;SDS011;26342;42.826;23.992;2023-10-08T09:16:11;0.00;;;0.00;;
40649;SDS011;26342;42.826;23.992;2023-10-08T09:18:39;0.98;;;0.75;;
40649;SDS011;26342;42.826;23.992;2023-10-08T09:21:07;1.58;;;0.93;;
40649;SDS011;26342;42.826;23.992;2023-10-08T09:23:38;0.88;;;0.82;;
40649;SDS011;26342;42.826;23.992;2023-10-08T09:26:08;1.27;;;0.68;;
40649;SDS011;26342;42.826;23.992;2023-10-08T09:28:39;0.00;;;0.00;;
40649;SDS011;26342;42.826;23.992;2023-10-08T09:31:09;0.30;;;0.30;;
40649;SDS011;26342;42.826;23.992;2023-10-08T09:33:36;0.65;;;0.65;;
40649;SDS011;26342;42.826;23.992;2023-10-08T09:36:02;0.30;;;0.30;;
40649;SDS011;26342;42.826;23.992;2023-10-08T09:38:32;1.67;;;0.90;;
40649;SDS011;26342;42.826;23.992;2023-10-08T09:41:00;0.60;;;0.60;;
40649;SDS011;26342;42.826;23.992;2023-10-08T09:43:31;1.60;;;0.80;;
40649;SDS011;26342;42.826;23.992;2023-10-08T09:46:12;0.22;;;0.20;;
40649;SDS011;26342;42.826;23.992;2023-10-08T09:48:41;1.52;;;1.27;;
40649;SDS011;26342;42.826;23.992;2023-10-08T09:51:13;0.80;;;0.80;;
40649;SDS011;26342;42.826;23.992;2023-10-08T09:53:47;0.20;;;0.20;;
40649;SDS011;26342;42.826;23.992;2023-10-08T09:56:19;0.15;;;0.10;;
40649;SDS011;26342;42.826;23.992;2023-10-08T09:58:46;0.93;;;0.55;;
40649;SDS011;26342;42.826;23.992;2023-10-08T10:01:14;0.45;;;0.45;;
40649;SDS011;26342;42.826;23.992;2023-10-08T10:03:44;0.30;;;0.30;;
40649;SDS011;26342;42.826;23.992;2023-10-08T10:06:14;0.17;;;0.17;;
40649;SDS011;26342;42.826;23.992;2023-10-08T10:08:42;0.57;;;0.50;;
40649;SDS011;26342;42.826;23.992;2023-10-08T10:11:08;0.20;;;0.20;;
40649;SDS011;26342;42.826;23.992;2023-10-08T10:13:39;0.43;;;0.43;;
40649;SDS011;26342;42.826;23.992;2023-10-08T10:16:17;0.85;;;0.38;;
40649;SDS011;26342;42.826;23.992;2023-10-08T10:18:44;0.38;;;0.35;;
40649;SDS011;26342;42.826;23.992;2023-10-08T10:23:46;0.00;;;0.00;;
40649;SDS011;26342;42.826;23.992;2023-10-08T10:26:22;0.52;;;0.40;;
40649;SDS011;26342;42.826;23.992;2023-10-08T10:31:35;0.10;;;0.10;;
40649;SDS011;26342;42.826;23.992;2023-10-08T10:34:10;0.10;;;0.10;;
40649;SDS011;26342;42.826;23.992;2023-10-08T10:36:38;0.30;;;0.25;;
40649;SDS011;26342;42.826;23.992;2023-10-08T10:39:07;0.80;;;0.43;;
40649;SDS011;26342;42.826;23.992;2023-10-08T10:41:55;0.40;;;0.40;;
40649;SDS011;26342;42.826;23.992;2023-10-08T10:44:23;1.20;;;0.80;;
40649;SDS011;26342;42.826;23.992;2023-10-08T10:46:50;0.38;;;0.38;;
40649;SDS011;26342;42.826;23.992;2023-10-08T10:49:19;1.25;;;0.90;;
40649;SDS011;26342;42.826;23.992;2023-10-08T10:51:56;3.03;;;0.98;;
40649;SDS011;26342;42.826;23.992;2023-10-08T10:54:24;0.98;;;0.50;;
40649;SDS011;26342;42.826;23.992;2023-10-08T10:56:51;0.73;;;0.52;;
40649;SDS011;26342;42.826;23.992;2023-10-08T10:59:38;0.75;;;0.30;;
40649;SDS011;26342;42.826;23.992;2023-10-08T11:02:06;0.20;;;0.13;;
40649;SDS011;26342;42.826;23.992;2023-10-08T11:04:46;1.33;;;0.65;;
40649;SDS011;26342;42.826;23.992;2023-10-08T11:07:18;0.65;;;0.17;;
40649;SDS011;26342;42.826;23.992;2023-10-08T11:09:49;0.30;;;0.30;;
40649;SDS011;26342;42.826;23.992;2023-10-08T11:12:17;0.38;;;0.38;;
40649;SDS011;26342;42.826;23.992;2023-10-08T11:14:57;0.20;;;0.10;;
40649;SDS011;26342;42.826;23.992;2023-10-08T11:17:25;0.05;;;0.05;;
40649;SDS011;26342;42.826;23.992;2023-10-08T11:19:54;2.60;;;0.70;;
40649;SDS011;26342;42.826;23.992;2023-10-08T11:22:19;0.40;;;0.40;;
40649;SDS011;26342;42.826;23.992;2023-10-08T11:24:48;0.40;;;0.40;;
40649;SDS011;26342;42.826;23.992;2023-10-08T11:27:17;0.25;;;0.20;;
40649;SDS011;26342;42.826;23.992;2023-10-08T11:30:00;0.20;;;0.20;;
40649;SDS011;26342;42.826;23.992;2023-10-08T11:32:26;0.85;;;0.85;;
40649;SDS011;26342;42.826;23.992;2023-10-08T11:34:55;0.35;;;0.35;;
40649;SDS011;26342;42.826;23.992;2023-10-08T11:37:27;0.55;;;0.55;;
40649;SDS011;26342;42.826;23.992;2023-10-08T11:39:54;0.17;;;0.17;;
40649;SDS011;26342;42.826;23.992;2023-10-08T11:42:23;1.20;;;0.73;;
40649;SDS011;26342;42.826;23.992;2023-10-08T11:45:01;0.52;;;0.30;;
40649;SDS011;26342;42.826;23.992;2023-10-08T11:47:54;0.55;;;0.55;;
40649;SDS011;26342;42.826;23.992;2023-10-08T11:50:28;0.20;;;0.10;;
40649;SDS011;26342;42.826;23.992;2023-10-08T11:52:58;0.10;;;0.10;;
40649;SDS011;26342;42.826;23.992;2023-10-08T11:55:28;0.03;;;0.03;;
40649;SDS011;26342;42.826;23.992;2023-10-08T11:57:54;0.08;;;0.08;;
40649;SDS011;26342;42.826;23.992;2023-10-08T12:00:20;5.07;;;1.00;;
40649;SDS011;26342;42.826;23.992;2023-10-08T12:02:48;0.10;;;0.10;;
40649;SDS011;26342;42.826;23.992;2023-10-08T12:05:14;0.25;;;0.25;;
40649;SDS011;26342;42.826;23.992;2023-10-08T12:07:52;0.20;;;0.20;;
40649;SDS011;26342;42.826;23.992;2023-10-08T12:10:22;2.45;;;1.13;;
40649;SDS011;26342;42.826;23.992;2023-10-08T12:15:15;0.38;;;0.38;;
40649;SDS011;26342;42.826;23.992;2023-10-08T12:17:47;1.95;;;0.45;;
40649;SDS011;26342;42.826;23.992;2023-10-08T12:20:33;1.55;;;0.50;;
40649;SDS011;26342;42.826;23.992;2023-10-08T12:23:03;1.15;;;1.08;;
40649;SDS011;26342;42.826;23.992;2023-10-08T12:25:35;3.72;;;0.90;;
40649;SDS011;26342;42.826;23.992;2023-10-08T12:28:04;0.45;;;0.45;;
40649;SDS011;26342;42.826;23.992;2023-10-08T12:30:30;0.20;;;0.20;;
40649;SDS011;26342;42.826;23.992;2023-10-08T12:32:59;4.82;;;0.90;;
40649;SDS011;26342;42.826;23.992;2023-10-08T12:35:26;1.55;;;0.55;;
40649;SDS011;26342;42.826;23.992;2023-10-08T12:37:52;3.78;;;1.58;;
40649;SDS011;26342;42.826;23.992;2023-10-08T12:40:19;2.72;;;0.80;;
40649;SDS011;26342;42.826;23.992;2023-10-08T12:42:48;0.13;;;0.13;;
40649;SDS011;26342;42.826;23.992;2023-10-08T12:45:15;0.25;;;0.25;;
40649;SDS011;26342;42.826;23.992;2023-10-08T12:47:46;0.63;;;0.63;;
40649;SDS011;26342;42.826;23.992;2023-10-08T12:50:12;0.08;;;0.08;;
40649;SDS011;26342;42.826;23.992;2023-10-08T12:52:41;0.30;;;0.30;;
40649;SDS011;26342;42.826;23.992;2023-10-08T12:55:18;4.65;;;1.50;;
40649;SDS011;26342;42.826;23.992;2023-10-08T12:57:49;1.48;;;0.90;;
40649;SDS011;26342;42.826;23.992;2023-10-08T13:00:22;1.67;;;0.90;;
40649;SDS011;26342;42.826;23.992;2023-10-08T13:02:51;0.63;;;0.63;;
40649;SDS011;26342;42.826;23.992;2023-10-08T13:05:20;1.95;;;0.80;;
40649;SDS011;26342;42.826;23.992;2023-10-08T13:07:53;2.65;;;1.83;;
40649;SDS011;26342;42.826;23.992;2023-10-08T13:10:25;8.20;;;0.80;;
40649;SDS011;26342;42.826;23.992;2023-10-08T13:12:51;0.22;;;0.20;;
40649;SDS011;26342;42.826;23.992;2023-10-08T13:15:16;1.85;;;1.45;;
40649;SDS011;26342;42.826;23.992;2023-10-08T13:17:42;6.30;;;2.08;;
40649;SDS011;26342;42.826;23.992;2023-10-08T13:20:10;4.68;;;2.22;;
40649;SDS011;26342;42.826;23.992;2023-10-08T13:22:39;5.25;;;2.85;;
40649;SDS011;26342;42.826;23.992;2023-10-08T13:25:05;0.85;;;0.73;;
40649;SDS011;26342;42.826;23.992;2023-10-08T13:27:31;0.77;;;0.50;;
40649;SDS011;26342;42.826;23.992;2023-10-08T13:29:58;1.77;;;1.67;;
40649;SDS011;26342;42.826;23.992;2023-10-08T13:32:23;0.43;;;0.43;;
40649;SDS011;26342;42.826;23.992;2023-10-08T13:34:49;0.60;;;0.57;;
40649;SDS011;26342;42.826;23.992;2023-10-08T13:37:14;1.02;;;0.47;;
40649;SDS011;26342;42.826;23.992;2023-10-08T13:39:41;2.42;;;0.65;;
40649;SDS011;26342;42.826;23.992;2023-10-08T13:42:07;1.50;;;0.75;;
40649;SDS011;26342;42.826;23.992;2023-10-08T13:44:32;0.50;;;0.28;;
40649;SDS011;26342;42.826;23.992;2023-10-08T13:47:00;0.52;;;0.32;;
40649;SDS011;26342;42.826;23.992;2023-10-08T13:49:30;0.47;;;0.43;;
40649;SDS011;26342;42.826;23.992;2023-10-08T13:51:57;0.08;;;0.08;;
40649;SDS011;26342;42.826;23.992;2023-10-08T13:54:23;0.20;;;0.20;;
40649;SDS011;26342;42.826;23.992;2023-10-08T13:56:55;3.20;;;1.05;;
40649;SDS011;26342;42.826;23.992;2023-10-08T13:59:21;6.03;;;2.40;;
40649;SDS011;26342;42.826;23.992;2023-10-08T14:01:49;1.73;;;0.65;;
40649;SDS011;26342;42.826;23.992;2023-10-08T14:04:20;0.65;;;0.65;;
40649;SDS011;26342;42.826;23.992;2023-10-08T14:06:51;1.45;;;0.82;;
40649;SDS011;26342;42.826;23.992;2023-10-08T14:09:17;10.07;;;2.45;;
40649;SDS011;26342;42.826;23.992;2023-10-08T14:11:50;0.80;;;0.38;;
40649;SDS011;26342;42.826;23.992;2023-10-08T14:14:17;1.67;;;0.90;;
40649;SDS011;26342;42.826;23.992;2023-10-08T14:16:44;0.73;;;0.47;;
40649;SDS011;26342;42.826;23.992;2023-10-08T14:19:16;0.93;;;0.80;;
40649;SDS011;26342;42.826;23.992;2023-10-08T14:21:43;1.70;;;1.27;;
40649;SDS011;26342;42.826;23.992;2023-10-08T14:24:18;3.10;;;2.10;;
40649;SDS011;26342;42.826;23.992;2023-10-08T14:26:45;3.10;;;2.65;;
40649;SDS011;26342;42.826;23.992;2023-10-08T14:29:18;2.05;;;1.85;;
40649;SDS011;26342;42.826;23.992;2023-10-08T14:31:43;2.08;;;1.15;;
40649;SDS011;26342;42.826;23.992;2023-10-08T14:34:13;5.40;;;1.85;;
40649;SDS011;26342;42.826;23.992;2023-10-08T14:36:42;9.40;;;2.20;;
40649;SDS011;26342;42.826;23.992;2023-10-08T14:39:45;1.25;;;0.98;;
40649;SDS011;26342;42.826;23.992;2023-10-08T14:42:29;1.52;;;1.42;;
40649;SDS011;26342;42.826;23.992;2023-10-08T14:45:14;3.55;;;2.33;;
40649;SDS011;26342;42.826;23.992;2023-10-08T14:47:44;8.93;;;2.85;;
40649;SDS011;26342;42.826;23.992;2023-10-08T14:50:10;0.90;;;0.82;;
40649;SDS011;26342;42.826;23.992;2023-10-08T14:52:42;1.45;;;1.27;;
40649;SDS011;26342;42.826;23.992;2023-10-08T14:55:08;1.05;;;0.90;;
40649;SDS011;26342;42.826;23.992;2023-10-08T14:57:34;1.13;;;0.77;;
40649;SDS011;26342;42.826;23.992;2023-10-08T14:59:59;0.45;;;0.40;;
40649;SDS011;26342;42.826;23.992;2023-10-08T15:02:25;0.73;;;0.57;;
40649;SDS011;26342;42.826;23.992;2023-10-08T15:04:54;2.30;;;0.63;;
40649;SDS011;26342;42.826;23.992;2023-10-08T15:07:21;1.38;;;1.27;;